createdAt,value
2023-05-15T00:01:25.779Z,102157.31
2023-05-15T00:03:55.119Z,102163.72
2023-05-15T00:06:23.510Z,102163.00
2023-05-15T00:08:51.853Z,102176.50
2023-05-15T00:11:20.287Z,102165.94
2023-05-15T00:13:49.658Z,102169.50
2023-05-15T00:16:18.050Z,102157.94
2023-05-15T00:18:46.232Z,102172.25
2023-05-15T00:21:14.313Z,102172.38
2023-05-15T00:23:42.313Z,102171.63
2023-05-15T00:26:10.460Z,102168.13
2023-05-15T00:28:38.548Z,102171.59
2023-05-15T00:31:08.693Z,102170.88
2023-05-15T00:33:36.809Z,102167.41
2023-05-15T00:36:05.040Z,102165.69
2023-05-15T00:38:33.610Z,102168.44
2023-05-15T00:41:02.965Z,102170.34
2023-05-15T00:43:32.097Z,102168.63
2023-05-15T00:46:02.292Z,102160.66
2023-05-15T00:48:34.058Z,102160.84
2023-05-15T00:51:02.443Z,102167.06
2023-05-15T00:53:30.448Z,102161.03
2023-05-15T00:55:59.883Z,102161.13
2023-05-15T00:58:29.405Z,102159.34
2023-05-15T01:00:57.629Z,102162.94
2023-05-15T01:03:26.041Z,102161.22
2023-05-15T01:05:55.856Z,102163.91
2023-05-15T01:08:28.583Z,102162.25
2023-05-15T01:10:58.334Z,102152.41
2023-05-15T01:13:26.545Z,102151.63
2023-05-15T01:15:56.957Z,102153.38
2023-05-15T01:18:26.051Z,102157.81
2023-05-15T01:21:17.982Z,102160.53
2023-05-15T01:24:01.733Z,102160.59
2023-05-15T01:26:44.810Z,102160.59
2023-05-15T01:29:21.850Z,102158.91
2023-05-15T01:31:55.588Z,102153.56
2023-05-15T01:34:28.411Z,102155.28
2023-05-15T01:37:01.076Z,102157.97
2023-05-15T01:39:33.832Z,102155.28
2023-05-15T01:42:07.726Z,102151.63
2023-05-15T01:44:38.051Z,102160.41
2023-05-15T01:47:10.207Z,102157.69
2023-05-15T01:49:40.397Z,102154.94
2023-05-15T01:52:14.553Z,102153.91
2023-05-15T01:54:43.689Z,102151.22
2023-05-15T01:57:12.995Z,102149.38
2023-05-15T01:59:43.065Z,102151.06
2023-05-15T02:02:12.021Z,102149.22
2023-05-15T02:04:41.493Z,102155.31
2023-05-15T02:07:10.269Z,102150.78
2023-05-15T02:09:38.909Z,102150.63
2023-05-15T02:12:08.388Z,102149.53
2023-05-15T02:14:38.105Z,102143.88
2023-05-15T02:17:07.738Z,102151.53
2023-05-15T02:19:35.982Z,102137.75
2023-05-15T02:22:07.448Z,102140.06
2023-05-15T02:24:35.528Z,102147.53
2023-05-15T02:27:13.328Z,102142.69
2023-05-15T02:29:56.552Z,102142.09
2023-05-15T02:32:32.243Z,102140.56
2023-05-15T02:35:12.510Z,102145.41
2023-05-15T02:37:42.512Z,102145.72
2023-05-15T02:40:13.450Z,102148.59
2023-05-15T02:42:42.769Z,102137.94
2023-05-15T02:45:12.088Z,102131.50
2023-05-15T02:47:41.962Z,102137.56
2023-05-15T02:50:11.372Z,102139.81
2023-05-15T02:52:39.359Z,102136.84
2023-05-15T02:55:08.563Z,102130.13
2023-05-15T02:57:36.555Z,102124.72
2023-05-15T03:00:07.366Z,102128.50
2023-05-15T03:02:36.272Z,102135.09
2023-05-15T03:05:06.640Z,102134.41
2023-05-15T03:07:34.726Z,102129.84
2023-05-15T03:10:02.747Z,102123.03
2023-05-15T03:12:31.808Z,102125.41
2023-05-15T03:15:00.059Z,102131.72
2023-05-15T03:17:28.394Z,102134.25
2023-05-15T03:19:56.461Z,102133.25
2023-05-15T03:22:25.904Z,102133.34
2023-05-15T03:24:53.909Z,102124.84
2023-05-15T03:27:22.676Z,102136.28
2023-05-15T03:29:51.189Z,102125.22
2023-05-15T03:32:19.537Z,102130.19
2023-05-15T03:34:47.512Z,102128.63
2023-05-15T03:37:15.790Z,102124.16
2023-05-15T03:39:45.213Z,102123.63
2023-05-15T03:42:14.265Z,102127.63
2023-05-15T03:44:42.370Z,102132.97
2023-05-15T03:47:10.499Z,102126.56
2023-05-15T03:49:38.642Z,102127.53
2023-05-15T03:52:07.482Z,102128.88
2023-05-15T03:54:36.106Z,102128.28
2023-05-15T03:57:06.508Z,102134.78
2023-05-15T03:59:34.663Z,102126.66
2023-05-15T04:02:04.799Z,102124.16
2023-05-15T04:04:33.299Z,102128.31
2023-05-15T04:07:01.356Z,102119.31
2023-05-15T04:09:29.436Z,102120.06
2023-05-15T04:11:57.605Z,102119.69
2023-05-15T04:14:27.027Z,102118.59
2023-05-15T04:16:55.502Z,102109.09
2023-05-15T04:19:23.523Z,102116.47
2023-05-15T04:21:51.480Z,102110.59
2023-05-15T04:24:19.506Z,102112.53
2023-05-15T04:26:47.619Z,102108.25
2023-05-15T04:29:15.716Z,102103.19
2023-05-15T04:31:45.179Z,102104.72
2023-05-15T04:34:13.388Z,102094.84
2023-05-15T04:36:42.954Z,102093.84
2023-05-15T04:39:11.571Z,102102.56
2023-05-15T04:41:39.545Z,102104.13
2023-05-15T04:44:08.593Z,102103.50
2023-05-15T04:46:37.599Z,102101.94
2023-05-15T04:49:07.608Z,102103.56
2023-05-15T04:51:35.686Z,102103.63
2023-05-15T04:54:03.701Z,102108.19
2023-05-15T04:56:33.211Z,102110.78
2023-05-15T04:59:01.382Z,102096.34
2023-05-15T05:01:29.725Z,102105.50
2023-05-15T05:03:57.767Z,102104.47
2023-05-15T05:06:29.234Z,102107.06
2023-05-15T05:08:59.109Z,102102.53
2023-05-15T05:11:27.169Z,102093.16
2023-05-15T05:13:55.284Z,102100.31
2023-05-15T05:16:23.372Z,102092.88
2023-05-15T05:18:51.766Z,102094.84
2023-05-15T05:21:19.840Z,102091.06
2023-05-15T05:23:49.216Z,102094.56
2023-05-15T05:26:17.314Z,102094.84
2023-05-15T05:28:45.307Z,102096.97
2023-05-15T05:31:13.437Z,102090.91
2023-05-15T05:33:41.724Z,102092.38
2023-05-15T05:36:10.491Z,102098.13
2023-05-15T05:38:39.233Z,102088.38
2023-05-15T05:41:09.775Z,102092.72
2023-05-15T05:43:38.041Z,102092.56
2023-05-15T05:46:06.344Z,102090.16
2023-05-15T05:48:34.376Z,102084.47
2023-05-15T05:51:02.643Z,102085.56
2023-05-15T05:53:30.606Z,102084.13
2023-05-15T05:55:58.790Z,102077.03
2023-05-15T05:58:28.304Z,102079.34
2023-05-15T06:00:56.449Z,102076.03
2023-05-15T06:03:25.961Z,102069.75
2023-05-15T06:05:54.564Z,102072.78
2023-05-15T06:08:22.627Z,102071.06
2023-05-15T06:10:50.658Z,102072.94
2023-05-15T06:13:19.085Z,102065.66
2023-05-15T06:15:48.800Z,102072.66
2023-05-15T06:18:16.839Z,102064.13
2023-05-15T06:20:44.977Z,102066.09
2023-05-15T06:23:12.998Z,102067.03
2023-05-15T06:25:41.507Z,102067.47
2023-05-15T06:28:09.608Z,102066.03
2023-05-15T06:30:37.692Z,102067.91
2023-05-15T06:33:07.209Z,102062.34
2023-05-15T06:35:35.700Z,102061.72
2023-05-15T06:38:04.025Z,102066.34
2023-05-15T06:40:32.248Z,102056.91
2023-05-15T06:43:00.301Z,102058.09
2023-05-15T06:45:28.601Z,102052.31
2023-05-15T06:47:58.495Z,102052.59
2023-05-15T06:50:29.307Z,102056.81
2023-05-15T06:52:57.341Z,102063.81
2023-05-15T06:55:25.665Z,102061.09
2023-05-15T06:57:53.940Z,102064.41
2023-05-15T07:00:22.449Z,102060.09
2023-05-15T07:02:50.577Z,102049.78
2023-05-15T07:05:18.674Z,102056.38
2023-05-15T07:07:48.167Z,102056.63
2023-05-15T07:10:16.351Z,102047.09
2023-05-15T07:12:44.489Z,102053.88
2023-05-15T07:15:12.992Z,102047.69
2023-05-15T07:17:41.201Z,102049.88
2023-05-15T07:20:10.160Z,102041.38
2023-05-15T07:22:44.504Z,102054.97
2023-05-15T07:25:22.010Z,102044.00
2023-05-15T07:27:50.137Z,102046.25
2023-05-15T07:30:18.221Z,102051.78
2023-05-15T07:32:46.349Z,102053.69
2023-05-15T07:35:14.484Z,102059.03
2023-05-15T07:37:42.609Z,102052.00
2023-05-15T07:40:11.266Z,102050.94
2023-05-15T07:42:40.701Z,102053.09
2023-05-15T07:45:09.754Z,102051.13
2023-05-15T07:47:37.969Z,102049.13
2023-05-15T07:50:06.883Z,102050.00
2023-05-15T07:52:34.848Z,102045.09
2023-05-15T07:55:03.666Z,102047.72
2023-05-15T07:57:32.013Z,102040.88
2023-05-15T08:00:02.806Z,102040.13
2023-05-15T08:02:40.173Z,102037.44
2023-05-15T08:05:08.989Z,102044.47
2023-05-15T08:07:37.067Z,102042.69
2023-05-15T08:10:06.421Z,102043.19
2023-05-15T08:12:34.834Z,102047.78
2023-05-15T08:15:04.697Z,102055.69
2023-05-15T08:17:32.895Z,102054.34
2023-05-15T08:20:00.924Z,102062.88
2023-05-15T08:22:30.391Z,102038.06
2023-05-15T08:24:59.534Z,102043.16
2023-05-15T08:27:27.907Z,102035.16
2023-05-15T08:29:55.995Z,102037.78
2023-05-15T08:32:25.544Z,102041.94
2023-05-15T08:34:54.796Z,102037.47
2023-05-15T08:37:22.765Z,102023.72
2023-05-15T08:39:50.854Z,102028.50
2023-05-15T08:42:22.858Z,102029.56
2023-05-15T08:44:51.693Z,102026.72
2023-05-15T08:47:20.691Z,102021.06
2023-05-15T08:50:04.787Z,102020.19
2023-05-15T08:52:33.640Z,102014.88
2023-05-15T08:55:02.093Z,102015.81
2023-05-15T08:57:34.112Z,102011.53
2023-05-15T09:00:02.940Z,102004.03
2023-05-15T09:02:32.778Z,102007.78
2023-05-15T09:05:02.560Z,102001.50
2023-05-15T09:07:31.897Z,102004.06
2023-05-15T09:10:02.336Z,102003.34
2023-05-15T09:12:35.889Z,101999.31
2023-05-15T09:15:11.335Z,102004.97
2023-05-15T09:17:39.768Z,102002.81
2023-05-15T09:20:26.214Z,102002.00
2023-05-15T09:22:54.653Z,101990.31
2023-05-15T09:25:39.517Z,101997.34
2023-05-15T09:28:10.657Z,101990.56
2023-05-15T09:30:39.464Z,101994.56
2023-05-15T09:33:08.125Z,101986.84
2023-05-15T09:35:39.182Z,101991.28
2023-05-15T09:38:11.429Z,101981.63
2023-05-15T09:40:39.927Z,101980.97
2023-05-15T09:43:07.946Z,101975.44
2023-05-15T09:45:36.193Z,101970.69
2023-05-15T09:48:07.063Z,101972.63
2023-05-15T09:50:37.933Z,101966.50
2023-05-15T09:53:08.612Z,101959.56
2023-05-15T09:55:37.034Z,101959.53
2023-05-15T09:58:07.403Z,101961.50
2023-05-15T10:00:36.457Z,101964.53
2023-05-15T10:03:20.720Z,101958.03
2023-05-15T10:05:50.887Z,101952.13
2023-05-15T10:08:28.511Z,101962.13
2023-05-15T10:11:00.420Z,101954.59
2023-05-15T10:13:32.261Z,101957.31
2023-05-15T10:16:03.617Z,101949.16
2023-05-15T10:18:34.984Z,101951.22
2023-05-15T10:21:05.340Z,101944.97
2023-05-15T10:23:37.663Z,101942.25
2023-05-15T10:26:12.408Z,101936.00
2023-05-15T10:28:44.122Z,101950.63
2023-05-15T10:31:13.994Z,101944.84
2023-05-15T10:33:43.124Z,101936.69
2023-05-15T10:36:14.512Z,101938.34
2023-05-15T10:38:44.189Z,101938.34
2023-05-15T10:41:17.754Z,101935.78
2023-05-15T10:43:47.377Z,101924.84
2023-05-15T10:46:16.339Z,101929.16
2023-05-15T10:48:44.844Z,101921.88
2023-05-15T10:51:26.138Z,101924.88
2023-05-15T10:53:54.771Z,101921.31
2023-05-15T10:56:27.672Z,101918.66
2023-05-15T10:58:56.607Z,101920.31
2023-05-15T11:01:29.409Z,101918.38
2023-05-15T11:04:11.452Z,101914.25
2023-05-15T11:06:42.218Z,101904.75
2023-05-15T11:09:35.789Z,101906.28
2023-05-15T11:12:05.315Z,101903.72
2023-05-15T11:14:35.080Z,101906.06
2023-05-15T11:17:08.215Z,101898.38
2023-05-15T11:19:39.472Z,101897.97
2023-05-15T11:22:22.952Z,101898.56
2023-05-15T11:24:53.699Z,101891.22
2023-05-15T11:27:23.674Z,101893.88
2023-05-15T11:30:09.246Z,101893.63
2023-05-15T11:32:52.249Z,101886.22
2023-05-15T11:35:23.697Z,101885.44
2023-05-15T11:37:55.882Z,101882.94
2023-05-15T11:40:27.082Z,101886.03
2023-05-15T11:43:18.613Z,101878.97
2023-05-15T11:45:50.002Z,101875.72
2023-05-15T11:48:19.179Z,101874.84
2023-05-15T11:50:47.701Z,101876.28
2023-05-15T11:53:18.052Z,101863.28
2023-05-15T11:55:46.300Z,101870.31
2023-05-15T11:58:16.345Z,101865.63
2023-05-15T12:00:45.786Z,101862.84
2023-05-15T12:03:18.267Z,101853.06
2023-05-15T12:05:57.375Z,101858.81
2023-05-15T12:08:33.503Z,101862.38
2023-05-15T12:11:02.256Z,101852.28
2023-05-15T12:13:31.527Z,101857.19
2023-05-15T12:16:00.081Z,101863.59
2023-05-15T12:18:28.264Z,101859.16
2023-05-15T12:20:56.531Z,101854.25
2023-05-15T12:23:26.781Z,101847.25
2023-05-15T12:25:58.759Z,101847.63
2023-05-15T12:28:27.509Z,101847.38
2023-05-15T12:30:56.187Z,101844.97
2023-05-15T12:33:24.962Z,101851.00
2023-05-15T12:35:58.256Z,101844.91
2023-05-15T12:38:28.875Z,101846.78
2023-05-15T12:40:59.091Z,101844.44
2023-05-15T12:43:27.770Z,101840.06
2023-05-15T12:45:57.098Z,101837.50
2023-05-15T12:48:32.245Z,101838.69
2023-05-15T12:51:07.418Z,101836.16
2023-05-15T12:53:36.102Z,101840.16
2023-05-15T12:56:05.769Z,101836.97
2023-05-15T12:58:34.970Z,101833.13
2023-05-15T13:01:04.497Z,101833.84
2023-05-15T13:03:33.304Z,101840.38
2023-05-15T13:06:04.017Z,101835.44
2023-05-15T13:08:32.429Z,101843.19
2023-05-15T13:11:01.410Z,101844.94
2023-05-15T13:13:45.709Z,101841.50
2023-05-15T13:16:21.744Z,101842.59
2023-05-15T13:18:50.141Z,101844.84
2023-05-15T13:21:18.627Z,101837.88
2023-05-15T13:23:46.732Z,101835.63
2023-05-15T13:26:14.960Z,101841.56
2023-05-15T13:28:44.345Z,101828.31
2023-05-15T13:31:12.492Z,101843.75
2023-05-15T13:33:40.580Z,101839.88
2023-05-15T13:36:09.002Z,101839.94
2023-05-15T13:38:37.104Z,101837.41
2023-05-15T13:41:05.327Z,101841.50
2023-05-15T13:43:33.403Z,101839.66
2023-05-15T13:46:02.922Z,101838.28
2023-05-15T13:48:31.031Z,101839.31
2023-05-15T13:50:59.079Z,101835.34
2023-05-15T13:53:27.231Z,101831.16
2023-05-15T13:55:55.304Z,101852.06
2023-05-15T13:58:26.570Z,101844.56
2023-05-15T14:00:54.932Z,101844.50
2023-05-15T14:03:24.350Z,101835.66
2023-05-15T14:05:52.833Z,101835.06
2023-05-15T14:08:21.165Z,101825.22
2023-05-15T14:10:49.302Z,101831.88
2023-05-15T14:13:17.402Z,101827.91
2023-05-15T14:15:45.452Z,101826.34
2023-05-15T14:18:14.128Z,101828.09
2023-05-15T14:20:43.529Z,101825.94
2023-05-15T14:23:11.565Z,101814.69
2023-05-15T14:25:39.588Z,101814.28
2023-05-15T14:28:07.736Z,101813.72
2023-05-15T14:30:36.008Z,101816.59
2023-05-15T14:33:04.072Z,101804.00
2023-05-15T14:35:32.118Z,101803.03
2023-05-15T14:38:02.932Z,101809.28
2023-05-15T14:40:31.130Z,101810.16
2023-05-15T14:42:59.141Z,101792.25
2023-05-15T14:45:27.283Z,101797.91
2023-05-15T14:47:55.516Z,101800.63
2023-05-15T14:50:23.879Z,101795.31
2023-05-15T14:52:51.926Z,101796.34
2023-05-15T14:55:22.063Z,101797.72
2023-05-15T14:57:50.724Z,101802.53
2023-05-15T15:00:19.441Z,101792.09
2023-05-15T15:02:47.560Z,101792.47
2023-05-15T15:05:15.881Z,101792.81
2023-05-15T15:08:00.969Z,101792.06
2023-05-15T15:10:31.761Z,101795.25
2023-05-15T15:13:00.075Z,101795.19
2023-05-15T15:15:29.059Z,101789.47
2023-05-15T15:17:58.347Z,101791.31
2023-05-15T15:20:27.978Z,101786.94
2023-05-15T15:22:56.794Z,101779.09
2023-05-15T15:25:25.149Z,101786.75
2023-05-15T15:27:54.554Z,101782.81
2023-05-15T15:30:22.656Z,101777.34
2023-05-15T15:32:50.703Z,101778.31
2023-05-15T15:35:18.847Z,101776.34
2023-05-15T15:37:47.168Z,101771.97
2023-05-15T15:40:15.903Z,101769.13
2023-05-15T15:42:44.133Z,101770.28
2023-05-15T15:45:13.589Z,101770.72
2023-05-15T15:47:41.945Z,101780.28
2023-05-15T15:50:10.384Z,101779.19
2023-05-15T15:52:38.351Z,101759.53
2023-05-15T15:55:07.661Z,101756.63
2023-05-15T15:57:35.791Z,101754.94
2023-05-15T16:00:05.514Z,101768.41
2023-05-15T16:02:35.157Z,101752.44
2023-05-15T16:05:03.535Z,101751.00
2023-05-15T16:07:32.013Z,101743.94
2023-05-15T16:10:11.433Z,101730.22
2023-05-15T16:12:42.425Z,101728.50
2023-05-15T16:17:44.343Z,101725.66
2023-05-15T16:20:13.179Z,101731.34
2023-05-15T16:22:41.930Z,101733.50
2023-05-15T16:25:10.713Z,101730.06
2023-05-15T16:27:38.710Z,101729.22
2023-05-15T16:30:07.967Z,101737.38
2023-05-15T16:32:36.322Z,101732.94
2023-05-15T16:35:06.710Z,101721.63
2023-05-15T16:37:34.804Z,101725.25
2023-05-15T16:40:03.951Z,101728.75
2023-05-15T16:42:36.321Z,101731.03
2023-05-15T16:45:04.817Z,101730.88
2023-05-15T16:47:32.885Z,101739.66
2023-05-15T16:50:01.052Z,101745.81
2023-05-15T16:52:30.768Z,101739.50
2023-05-15T16:54:58.933Z,101734.34
2023-05-15T16:57:27.174Z,101731.03
2023-05-15T16:59:55.182Z,101733.00
2023-05-15T17:02:23.252Z,101739.88
2023-05-15T17:04:52.855Z,101734.50
2023-05-15T17:07:21.512Z,101749.06
2023-05-15T17:09:50.887Z,101745.25
2023-05-15T17:12:19.038Z,101758.97
2023-05-15T17:14:47.137Z,101747.50
2023-05-15T17:17:15.217Z,101736.81
2023-05-15T17:19:43.293Z,101739.59
2023-05-15T17:22:11.398Z,101735.09
2023-05-15T17:24:50.771Z,101738.97
2023-05-15T17:27:21.965Z,101733.50
2023-05-15T17:29:50.417Z,101730.19
2023-05-15T17:32:19.092Z,101727.63
2023-05-15T17:34:47.724Z,101744.00
2023-05-15T17:37:15.928Z,101741.84
2023-05-15T17:39:44.304Z,101740.25
2023-05-15T17:42:12.469Z,101740.34
2023-05-15T17:44:41.975Z,101740.41
2023-05-15T17:47:10.582Z,101748.53
2023-05-15T17:49:38.778Z,101744.09
2023-05-15T17:52:07.091Z,101750.81
2023-05-15T17:54:35.203Z,101744.69
2023-05-15T17:57:03.608Z,101750.06
2023-05-15T17:59:32.028Z,101763.81
2023-05-15T18:02:02.508Z,101767.50
2023-05-15T18:04:30.856Z,101755.31
2023-05-15T18:06:58.920Z,101761.75
2023-05-15T18:09:27.139Z,101760.81
2023-05-15T18:11:55.181Z,101765.31
2023-05-15T18:14:23.257Z,101769.75
2023-05-15T18:16:51.376Z,101762.06
2023-05-15T18:19:20.978Z,101769.47
2023-05-15T18:21:49.223Z,101769.69
2023-05-15T18:24:17.323Z,101772.50
2023-05-15T18:26:45.413Z,101773.38
2023-05-15T18:29:13.398Z,101778.06
2023-05-15T18:31:41.531Z,101783.66
2023-05-15T18:34:09.689Z,101784.84
2023-05-15T18:36:39.043Z,101785.19
2023-05-15T18:39:07.251Z,101785.25
2023-05-15T18:41:35.340Z,101785.41
2023-05-15T18:44:03.386Z,101791.78
2023-05-15T18:46:31.876Z,101790.03
2023-05-15T18:48:59.986Z,101788.44
2023-05-15T18:51:27.977Z,101789.31
2023-05-15T18:53:57.396Z,101796.69
2023-05-15T18:56:26.005Z,101797.75
2023-05-15T18:58:56.241Z,101797.97
2023-05-15T19:01:24.521Z,101798.09
2023-05-15T19:03:52.647Z,101795.59
2023-05-15T19:06:20.769Z,101791.38
2023-05-15T19:08:49.413Z,101796.88
2023-05-15T19:11:18.807Z,101791.69
2023-05-15T19:13:46.835Z,101788.22
2023-05-15T19:16:14.827Z,101790.25
2023-05-15T19:18:42.994Z,101786.72
2023-05-15T19:21:11.317Z,101790.41
2023-05-15T19:23:39.320Z,101787.88
2023-05-15T19:26:07.320Z,101792.56
2023-05-15T19:28:36.830Z,101792.81
2023-05-15T19:31:05.637Z,101793.97
2023-05-15T19:33:36.376Z,101797.59
2023-05-15T19:36:04.441Z,101789.53
2023-05-15T19:38:32.451Z,101792.22
2023-05-15T19:41:00.520Z,101791.47
2023-05-15T19:43:28.720Z,101797.94
2023-05-15T19:45:58.286Z,101787.16
2023-05-15T19:48:26.351Z,101784.53
2023-05-15T19:50:54.411Z,101794.63
2023-05-15T19:53:22.366Z,101792.84
2023-05-15T19:55:51.064Z,101791.97
2023-05-15T19:58:21.532Z,101791.16
2023-05-15T20:00:52.705Z,101793.03
2023-05-15T20:03:22.469Z,101789.63
2023-05-15T20:05:52.059Z,101787.88
2023-05-15T20:08:20.239Z,101787.03
2023-05-15T20:10:52.300Z,101786.31
2023-05-15T20:13:20.874Z,101781.94
2023-05-15T20:15:48.995Z,101777.53
2023-05-15T20:18:17.417Z,101777.69
2023-05-15T20:20:47.102Z,101772.38
2023-05-15T20:23:15.280Z,101778.66
2023-05-15T20:25:43.411Z,101781.44
2023-05-15T20:28:11.454Z,101768.19
2023-05-15T20:30:39.623Z,101774.56
2023-05-15T20:33:07.742Z,101786.94
2023-05-15T20:35:35.860Z,101776.31
2023-05-15T20:38:05.704Z,101789.78
2023-05-15T20:40:33.782Z,101769.38
2023-05-15T20:43:02.424Z,101772.00
2023-05-15T20:45:32.369Z,101779.25
2023-05-15T20:48:01.082Z,101775.84
2023-05-15T20:50:29.288Z,101771.59
2023-05-15T20:52:57.498Z,101765.34
2023-05-15T20:55:26.988Z,101767.13
2023-05-15T20:57:55.484Z,101762.75
2023-05-15T21:00:23.535Z,101764.63
2023-05-15T21:02:51.783Z,101761.16
2023-05-15T21:05:19.860Z,101769.28
2023-05-15T21:07:48.594Z,101766.72
2023-05-15T21:10:17.015Z,101764.16
2023-05-15T21:12:46.367Z,101765.97
2023-05-15T21:15:14.364Z,101760.66
2023-05-15T21:17:42.414Z,101757.16
2023-05-15T21:20:11.076Z,101752.75
2023-05-15T21:22:39.124Z,101752.81
2023-05-15T21:25:08.097Z,101752.88
2023-05-15T21:27:36.111Z,101758.31
2023-05-15T21:30:06.540Z,101753.94
2023-05-15T21:32:34.852Z,101749.50
2023-05-15T21:35:02.938Z,101756.66
2023-05-15T21:37:32.138Z,101755.84
2023-05-15T21:40:00.197Z,101752.38
2023-05-15T21:42:28.242Z,101748.88
2023-05-15T21:44:56.436Z,101747.13
2023-05-15T21:47:26.240Z,101749.78
2023-05-15T21:49:54.371Z,101755.28
2023-05-15T21:52:22.443Z,101749.78
2023-05-15T21:54:50.926Z,101747.34
2023-05-15T21:57:19.036Z,101747.34
2023-05-15T21:59:47.098Z,101752.69
2023-05-15T22:02:15.153Z,101749.22
2023-05-15T22:04:44.684Z,101755.59
2023-05-15T22:07:14.799Z,101753.84
2023-05-15T22:09:44.702Z,101748.50
2023-05-15T22:12:12.847Z,101745.94
2023-05-15T22:14:57.031Z,101747.81
2023-05-15T22:17:30.664Z,101750.66
2023-05-15T22:20:08.020Z,101748.16
2023-05-15T22:22:37.092Z,101735.75
2023-05-15T22:25:05.802Z,101741.16
2023-05-15T22:27:34.064Z,101739.56
2023-05-15T22:30:02.130Z,101745.81
2023-05-15T22:32:31.707Z,101739.63
2023-05-15T22:35:01.254Z,101741.50
2023-05-15T22:37:29.365Z,101737.06
2023-05-15T22:39:57.588Z,101734.41
2023-05-15T22:42:25.654Z,101731.72
2023-05-15T22:44:55.430Z,101727.41
2023-05-15T22:47:23.539Z,101726.47
2023-05-15T22:49:51.781Z,101723.00
2023-05-15T22:52:21.494Z,101724.97
2023-05-15T22:54:49.607Z,101723.22
2023-05-15T22:57:17.638Z,101716.19
2023-05-15T22:59:46.035Z,101714.53
2023-05-15T23:02:14.085Z,101723.47
2023-05-15T23:04:43.362Z,101722.59
2023-05-15T23:07:11.331Z,101718.31
2023-05-15T23:09:40.718Z,101715.63
2023-05-15T23:12:09.108Z,101715.66
2023-05-15T23:14:37.096Z,101710.38
2023-05-15T23:17:05.514Z,101713.22
2023-05-15T23:19:33.983Z,101708.78
2023-05-15T23:22:02.303Z,101713.31
2023-05-15T23:24:32.321Z,101708.97
2023-05-15T23:27:01.796Z,101708.25
2023-05-15T23:29:29.887Z,101702.03
2023-05-15T23:31:58.165Z,101702.94
2023-05-15T23:34:26.904Z,101702.13
2023-05-15T23:36:54.999Z,101710.19
2023-05-15T23:39:23.059Z,101696.06
2023-05-15T23:41:51.415Z,101702.38
2023-05-15T23:44:20.868Z,101698.94
2023-05-15T23:46:48.875Z,101705.19
2023-05-15T23:49:16.969Z,101701.63
2023-05-15T23:51:44.877Z,101702.75
2023-05-15T23:54:12.881Z,101697.53
2023-05-15T23:56:41.235Z,101696.53
2023-05-15T23:59:09.308Z,101700.28
